Time;durP1;ratioP1;P1;durP2;ratioP2;P2;SDS_P1;SDS_P2;PMS_P1;PMS_P2;Temp;Humidity;BMP_temperature;BMP_pressure;BME280_temperature;BME280_humidity;BME280_pressure;Samples;Min_cycle;Max_cycle;Signal;HPM_P1;HPM_P2
2023/04/02 00:00:45;;;;;;;16.05;8.48;;;5.90;99.90;;;;;;4956932;28;20105;-66
2023/04/02 00:03:10;;;;;;;16.85;8.57;;;5.80;99.90;;;;;;4942282;28;20557;-66
2023/04/02 00:05:48;;;;;;;15.18;8.70;;;5.80;99.90;;;;;;4960635;28;20051;-66
2023/04/02 00:08:39;;;;;;;18.10;8.40;;;5.70;99.90;;;;;;4973830;28;20049;-67
2023/04/02 00:11:06;;;;;;;15.05;8.35;;;5.70;99.90;;;;;;4950991;28;20090;-66
2023/04/02 00:13:37;;;;;;;13.80;8.45;;;5.70;99.90;;;;;;4974965;28;20050;-66
2023/04/02 00:16:06;;;;;;;16.10;8.20;;;5.60;99.90;;;;;;4971909;28;20058;-66
2023/04/02 00:18:37;;;;;;;16.30;8.20;;;5.60;99.90;;;;;;4956993;28;20081;-66
2023/04/02 00:21:11;;;;;;;13.85;8.13;;;5.60;99.90;;;;;;4968658;28;20130;-66
2023/04/02 00:23:42;;;;;;;16.13;8.38;;;5.60;99.90;;;;;;4974239;28;20069;-66
2023/04/02 00:26:20;;;;;;;16.73;8.52;;;5.50;99.90;;;;;;4974066;28;20506;-66
2023/04/02 00:28:46;;;;;;;14.38;8.35;;;5.50;99.90;;;;;;4971347;28;20437;-66
2023/04/02 00:31:12;;;;;;;12.32;7.85;;;5.50;99.90;;;;;;4978775;28;20126;-66
2023/04/02 00:33:37;;;;;;;14.80;8.13;;;5.50;99.90;;;;;;4974356;28;20042;-66
2023/04/02 00:36:06;;;;;;;15.13;8.43;;;5.50;99.90;;;;;;4957655;28;20057;-66
2023/04/02 00:38:34;;;;;;;12.60;8.13;;;5.50;99.90;;;;;;4964375;28;20494;-66
2023/04/02 00:41:02;;;;;;;14.35;8.27;;;5.50;99.90;;;;;;4973526;28;20653;-66
2023/04/02 00:43:33;;;;;;;16.70;9.07;;;5.40;99.90;;;;;;4973361;28;20043;-66
2023/04/02 00:46:02;;;;;;;12.80;8.52;;;5.40;99.90;;;;;;4973663;28;20532;-66
2023/04/02 00:48:31;;;;;;;14.35;8.95;;;5.40;99.90;;;;;;4981417;28;20498;-66
2023/04/02 00:51:07;;;;;;;16.40;9.73;;;5.40;99.90;;;;;;4957019;28;20402;-66
2023/04/02 00:53:34;;;;;;;15.07;8.82;;;5.40;99.90;;;;;;4974613;28;20051;-66
2023/04/02 00:56:02;;;;;;;12.50;8.23;;;5.40;99.90;;;;;;4969931;28;20497;-66
2023/04/02 00:58:31;;;;;;;13.45;8.10;;;5.30;99.90;;;;;;4973567;28;20043;-66
2023/04/02 01:00:58;;;;;;;11.43;7.80;;;5.30;99.90;;;;;;4973251;28;20113;-66
2023/04/02 01:03:29;;;;;;;11.98;8.10;;;5.30;99.90;;;;;;4976698;28;20090;-66
2023/04/02 01:06:09;;;;;;;12.43;7.23;;;5.30;99.90;;;;;;4958324;28;20055;-66
2023/04/02 01:08:53;;;;;;;16.27;8.60;;;5.30;99.90;;;;;;4973835;28;20038;-66
2023/04/02 01:11:27;;;;;;;13.65;7.70;;;5.20;99.90;;;;;;4969809;28;20043;-66
2023/04/02 01:14:11;;;;;;;15.35;8.88;;;5.20;99.90;;;;;;4966356;28;20412;-66
2023/04/02 01:17:14;;;;;;;14.23;8.77;;;5.20;99.90;;;;;;4966906;28;20049;-66
2023/04/02 01:20:15;;;;;;;14.68;9.07;;;5.10;99.90;;;;;;4943786;28;20054;-66
2023/04/02 01:22:56;;;;;;;13.20;8.98;;;5.10;99.90;;;;;;4954953;28;20421;-66
2023/04/02 01:25:40;;;;;;;16.30;8.80;;;5.00;99.90;;;;;;4954452;28;20086;-66
2023/04/02 01:28:18;;;;;;;14.57;8.75;;;5.00;99.90;;;;;;4972799;28;20047;-66
2023/04/02 01:30:48;;;;;;;12.88;8.50;;;5.00;99.90;;;;;;4972169;28;20047;-66
2023/04/02 01:33:13;;;;;;;15.70;8.55;;;5.00;99.90;;;;;;4955879;28;20097;-66
2023/04/02 01:35:46;;;;;;;17.25;8.18;;;4.90;99.90;;;;;;4971687;28;20047;-66
2023/04/02 01:38:32;;;;;;;12.32;8.23;;;4.90;99.90;;;;;;4968172;28;20452;-66
2023/04/02 01:41:06;;;;;;;14.20;7.40;;;4.90;99.90;;;;;;4972290;28;20057;-66
2023/04/02 01:43:42;;;;;;;11.02;7.05;;;4.80;99.90;;;;;;4972772;28;20042;-66
2023/04/02 01:46:27;;;;;;;15.18;6.93;;;4.80;99.90;;;;;;4951651;28;20047;-66
2023/04/02 01:48:55;;;;;;;14.10;6.80;;;4.70;99.90;;;;;;4972699;28;20046;-66
2023/04/02 01:51:32;;;;;;;11.98;6.70;;;4.70;99.90;;;;;;4955442;28;20047;-66
2023/04/02 01:54:04;;;;;;;11.05;6.53;;;4.70;99.90;;;;;;4956054;28;20134;-66
2023/04/02 01:56:30;;;;;;;12.32;6.68;;;4.60;99.90;;;;;;4952899;28;20059;-66
2023/04/02 01:58:57;;;;;;;13.32;6.57;;;4.50;99.90;;;;;;4962427;28;20147;-66
2023/04/02 02:01:29;;;;;;;8.68;5.10;;;4.50;99.90;;;;;;4973029;28;20041;-66
2023/04/02 02:03:55;;;;;;;9.73;4.90;;;4.40;99.90;;;;;;4978639;28;20035;-66
2023/04/02 02:06:22;;;;;;;9.60;4.88;;;4.30;99.90;;;;;;4959776;28;20089;-66
2023/04/02 02:08:53;;;;;;;9.35;4.63;;;4.30;99.90;;;;;;4972182;28;20046;-66
2023/04/02 02:11:21;;;;;;;8.90;4.25;;;4.20;99.90;;;;;;4970647;28;20046;-66
2023/04/02 02:13:57;;;;;;;10.48;4.60;;;4.10;99.90;;;;;;4968397;28;20049;-66
2023/04/02 02:16:26;;;;;;;6.45;4.13;;;4.10;99.90;;;;;;4964823;28;20035;-66
2023/04/02 02:18:54;;;;;;;11.80;4.22;;;4.00;99.90;;;;;;4970589;28;20425;-66
2023/04/02 02:21:35;;;;;;;9.73;4.20;;;4.00;99.90;;;;;;4971539;28;20043;-66
2023/04/02 02:24:03;;;;;;;8.52;3.85;;;4.00;99.90;;;;;;4955249;28;20119;-66
2023/04/02 02:26:32;;;;;;;7.00;4.00;;;3.90;99.90;;;;;;4972709;28;20118;-66
2023/04/02 02:29:00;;;;;;;7.38;3.70;;;3.90;99.90;;;;;;4968612;28;20066;-66
2023/04/02 02:31:32;;;;;;;7.00;3.60;;;3.90;99.90;;;;;;4959291;28;20121;-66
2023/04/02 02:34:05;;;;;;;11.73;3.45;;;3.80;99.90;;;;;;4972693;28;20050;-66
2023/04/02 02:37:13;;;;;;;7.50;3.22;;;3.80;99.90;;;;;;4969463;28;20042;-66
2023/04/02 02:39:43;;;;;;;7.28;3.60;;;3.70;99.90;;;;;;4966255;28;20054;-66
2023/04/02 02:42:21;;;;;;;9.55;3.50;;;3.60;99.90;;;;;;4972212;28;20038;-66
2023/04/02 02:44:50;;;;;;;6.60;3.28;;;3.50;99.90;;;;;;4953971;28;20049;-66
2023/04/02 02:47:28;;;;;;;7.32;3.20;;;3.40;99.90;;;;;;4958389;28;20507;-66
2023/04/02 02:49:57;;;;;;;5.70;2.95;;;3.30;99.90;;;;;;4976573;28;20489;-66
2023/04/02 02:52:31;;;;;;;7.65;3.20;;;3.20;99.90;;;;;;4973424;28;20039;-66
2023/04/02 02:55:03;;;;;;;10.15;3.50;;;3.20;99.90;;;;;;4974206;28;20064;-66
2023/04/02 02:57:34;;;;;;;11.00;3.45;;;3.10;99.90;;;;;;4974783;28;20367;-66
2023/04/02 03:00:01;;;;;;;6.97;3.10;;;3.00;99.90;;;;;;4958088;28;20511;-66
2023/04/02 03:02:27;;;;;;;6.25;3.05;;;3.00;99.90;;;;;;4973165;28;20030;-66
2023/04/02 03:04:54;;;;;;;11.43;3.60;;;3.00;99.90;;;;;;4975281;28;20118;-66
2023/04/02 03:07:24;;;;;;;9.40;3.63;;;2.90;99.90;;;;;;4975848;28;20101;-66
2023/04/02 03:10:00;;;;;;;7.57;3.70;;;2.90;99.90;;;;;;4956995;28;20038;-66
2023/04/02 03:12:40;;;;;;;7.05;3.78;;;2.80;99.90;;;;;;4968244;28;20039;-66
2023/04/02 03:15:26;;;;;;;8.60;3.75;;;2.80;99.90;;;;;;4975361;28;20046;-66
2023/04/02 03:18:19;;;;;;;8.20;4.05;;;2.80;99.90;;;;;;4942744;28;20031;-66
2023/04/02 03:20:59;;;;;;;7.97;4.60;;;2.70;99.90;;;;;;4971542;28;20043;-66
2023/04/02 03:23:37;;;;;;;8.15;4.00;;;2.70;99.90;;;;;;4974735;28;20034;-66
2023/04/02 03:26:15;;;;;;;13.27;4.43;;;2.60;99.90;;;;;;4963671;28;20047;-66
2023/04/02 03:29:05;;;;;;;8.40;4.30;;;2.60;99.90;;;;;;4969569;28;20046;-66
2023/04/02 03:31:35;;;;;;;10.68;4.50;;;2.60;99.90;;;;;;4966963;28;20070;-66
2023/04/02 03:34:12;;;;;;;15.23;5.15;;;2.50;99.90;;;;;;4975367;28;20121;-66
2023/04/02 03:37:06;;;;;;;9.43;5.03;;;2.50;99.90;;;;;;4965438;28;20097;-66
2023/04/02 03:39:49;;;;;;;11.30;5.00;;;2.50;99.90;;;;;;4968074;28;20051;-66
2023/04/02 03:42:24;;;;;;;11.52;5.30;;;2.50;99.90;;;;;;4956017;28;20038;-66
2023/04/02 03:45:02;;;;;;;12.18;5.40;;;2.40;99.90;;;;;;4958838;28;20043;-66
2023/04/02 03:47:48;;;;;;;10.82;5.38;;;2.40;99.90;;;;;;4967532;28;20045;-66
2023/04/02 03:50:30;;;;;;;8.25;5.40;;;2.40;99.90;;;;;;4975519;28;20122;-66
2023/04/02 03:52:57;;;;;;;11.90;5.95;;;2.40;99.90;;;;;;4965450;28;20050;-66
2023/04/02 03:55:30;;;;;;;10.82;5.93;;;2.40;99.90;;;;;;4970397;28;20043;-66
2023/04/02 03:58:15;;;;;;;11.45;6.18;;;2.50;99.90;;;;;;4973895;28;20625;-66
2023/04/02 04:01:04;;;;;;;9.20;5.72;;;2.50;99.90;;;;;;4969947;28;20037;-66
2023/04/02 04:03:41;;;;;;;13.75;7.15;;;2.50;99.90;;;;;;4972255;28;20030;-66
2023/04/02 04:06:20;;;;;;;9.05;5.80;;;2.50;99.90;;;;;;4974129;28;20513;-66
2023/04/02 04:08:53;;;;;;;12.93;6.90;;;2.50;99.90;;;;;;4954455;28;20057;-66
2023/04/02 04:11:25;;;;;;;9.85;6.35;;;2.50;99.90;;;;;;4969341;28;20046;-66
2023/04/02 04:14:06;;;;;;;11.93;6.07;;;2.60;99.90;;;;;;4957452;28;20046;-66
2023/04/02 04:16:41;;;;;;;15.20;6.33;;;2.60;99.90;;;;;;4971141;28;20046;-66
2023/04/02 04:19:16;;;;;;;11.73;6.53;;;2.60;99.90;;;;;;4958221;28;20282;-66
2023/04/02 04:21:44;;;;;;;12.02;6.63;;;2.60;99.90;;;;;;4956851;28;20118;-66
2023/04/02 04:24:22;;;;;;;13.48;6.60;;;2.60;99.90;;;;;;4957069;28;20051;-66
2023/04/02 04:27:02;;;;;;;10.95;6.88;;;2.60;99.90;;;;;;4971837;28;20511;-66
2023/04/02 04:29:54;;;;;;;13.57;7.38;;;2.70;99.90;;;;;;4973163;28;20046;-66
2023/04/02 04:32:30;;;;;;;;;;;2.60;99.90;;;;;;4957385;28;20062;-66
2023/04/02 04:35:49;;;;;;;12.48;6.72;;;2.60;99.90;;;;;;4965731;28;19922;-66
2023/04/02 04:38:31;;;;;;;11.90;6.60;;;2.60;99.90;;;;;;4913539;29;20044;-66
2023/04/02 04:41:05;;;;;;;13.27;7.00;;;2.60;99.90;;;;;;4968347;28;20386;-66
2023/04/02 04:43:30;;;;;;;10.50;6.90;;;2.60;99.90;;;;;;4975013;28;20065;-66
2023/04/02 04:46:04;;;;;;;10.52;6.43;;;2.60;99.90;;;;;;4967434;28;20039;-66
2023/04/02 04:48:45;;;;;;;11.27;6.03;;;2.50;99.90;;;;;;4973931;28;20046;-66
2023/04/02 04:51:43;;;;;;;16.40;6.70;;;2.50;99.90;;;;;;4975321;28;20074;-66
2023/04/02 04:54:12;;;;;;;16.58;7.40;;;2.50;99.90;;;;;;4971982;28;20035;-66
2023/04/02 04:56:39;;;;;;;10.40;6.68;;;2.50;99.90;;;;;;4973308;28;20051;-66
2023/04/02 04:59:16;;;;;;;13.98;7.57;;;2.50;99.90;;;;;;4967681;28;20063;-66
2023/04/02 05:01:46;;;;;;;13.82;7.20;;;2.50;99.90;;;;;;4950311;28;20089;-66
2023/04/02 05:04:21;;;;;;;12.65;7.53;;;2.50;99.90;;;;;;4974175;28;20070;-66
2023/04/02 05:07:01;;;;;;;12.07;7.10;;;2.50;99.90;;;;;;4966849;28;20465;-66
2023/04/02 05:09:30;;;;;;;12.80;7.65;;;2.50;99.90;;;;;;4952569;28;20467;-66
2023/04/02 05:12:06;;;;;;;14.00;7.70;;;2.50;99.90;;;;;;4972672;28;20050;-66
2023/04/02 05:14:36;;;;;;;15.60;8.30;;;2.50;99.90;;;;;;4953268;28;20429;-66
2023/04/02 05:17:09;;;;;;;13.85;8.73;;;2.50;99.90;;;;;;4939472;28;20071;-66
2023/04/02 05:19:42;;;;;;;13.73;8.90;;;2.50;99.90;;;;;;4972498;28;20035;-66
2023/04/02 05:22:27;;;;;;;14.70;9.57;;;2.50;99.90;;;;;;4971735;28;20039;-66
2023/04/02 05:25:01;;;;;;;20.63;10.65;;;2.50;99.90;;;;;;4951898;28;20042;-65
2023/04/02 05:27:53;;;;;;;17.10;9.77;;;2.50;99.90;;;;;;4972584;28;20038;-65
2023/04/02 05:30:39;;;;;;;18.23;9.25;;;2.50;99.90;;;;;;4943720;28;20167;-65
2023/04/02 05:33:17;;;;;;;14.18;9.75;;;2.50;99.90;;;;;;4967205;28;20051;-65
2023/04/02 05:35:47;;;;;;;14.65;9.57;;;2.50;99.90;;;;;;4971714;28;20577;-66
2023/04/02 05:38:22;;;;;;;17.80;9.07;;;2.50;99.90;;;;;;4972275;28;20034;-66
2023/04/02 05:40:58;;;;;;;17.63;9.05;;;2.50;99.90;;;;;;4955687;28;20043;-66
2023/04/02 05:43:25;;;;;;;12.15;8.10;;;2.50;99.90;;;;;;4958167;28;20045;-65
2023/04/02 05:45:54;;;;;;;14.60;8.30;;;2.60;99.90;;;;;;4974830;28;20126;-65
2023/04/02 05:48:34;;;;;;;13.70;8.20;;;2.60;99.90;;;;;;4973274;28;20115;-65
2023/04/02 05:51:04;;;;;;;14.07;8.02;;;2.60;99.90;;;;;;4977927;28;20034;-65
2023/04/02 05:53:36;;;;;;;15.75;8.05;;;2.60;99.90;;;;;;4973925;28;20110;-66
2023/04/02 05:56:16;;;;;;;11.90;7.57;;;2.60;99.90;;;;;;4951074;28;20478;-65
2023/04/02 05:58:48;;;;;;;12.35;6.95;;;2.70;99.90;;;;;;4975576;28;20057;-69
2023/04/02 06:01:28;;;;;;;12.13;5.63;;;2.70;99.90;;;;;;4961376;28;20047;-70
2023/04/02 06:04:21;;;;;;;11.30;6.95;;;2.70;99.90;;;;;;4978384;28;20045;-69
2023/04/02 06:07:10;;;;;;;10.68;6.75;;;2.70;99.90;;;;;;4959504;28;20091;-69
2023/04/02 06:09:38;;;;;;;11.02;5.47;;;2.70;99.90;;;;;;4970752;28;20035;-69
2023/04/02 06:12:16;;;;;;;10.63;5.88;;;2.70;99.90;;;;;;4946929;28;20066;-69
2023/04/02 06:14:42;;;;;;;18.02;6.00;;;2.70;99.90;;;;;;4978017;28;20050;-69
2023/04/02 06:17:13;;;;;;;8.63;5.63;;;2.80;99.90;;;;;;4945359;28;20158;-69
2023/04/02 06:19:38;;;;;;;11.35;5.20;;;2.80;99.90;;;;;;4944073;28;20049;-68
2023/04/02 06:22:37;;;;;;;10.48;5.05;;;2.80;99.90;;;;;;4959945;28;20043;-69
2023/04/02 06:25:28;;;;;;;9.90;5.13;;;2.90;99.90;;;;;;4967436;28;20082;-65
2023/04/02 06:27:56;;;;;;;8.98;4.32;;;2.90;99.90;;;;;;4972882;28;20046;-66
2023/04/02 06:30:37;;;;;;;10.23;4.63;;;2.90;99.90;;;;;;4974051;28;20038;-66
2023/04/02 06:33:03;;;;;;;7.03;4.30;;;2.90;99.90;;;;;;4956660;28;20052;-66
2023/04/02 06:35:29;;;;;;;10.20;4.30;;;2.90;99.90;;;;;;4968752;28;20039;-67
2023/04/02 06:37:59;;;;;;;8.10;3.95;;;2.80;99.90;;;;;;4936886;28;20573;-68
2023/04/02 06:40:32;;;;;;;8.77;4.13;;;2.80;99.90;;;;;;4953220;28;20134;-67
2023/04/02 06:43:02;;;;;;;9.60;4.50;;;2.80;99.90;;;;;;4952131;28;20043;-67
2023/04/02 06:45:32;;;;;;;10.23;3.95;;;2.90;99.90;;;;;;4953624;28;20054;-68
2023/04/02 06:48:01;;;;;;;9.75;4.47;;;3.00;99.90;;;;;;4970313;28;20051;-68
2023/04/02 06:50:52;;;;;;;8.82;4.60;;;3.00;99.90;;;;;;4938231;28;20561;-69
2023/04/02 06:53:33;;;;;;;10.27;4.35;;;3.10;99.90;;;;;;4969279;28;20046;-68
2023/04/02 06:56:34;;;;;;;9.10;3.85;;;3.10;99.90;;;;;;4968942;28;20078;-69
2023/04/02 06:59:02;;;;;;;8.85;4.47;;;3.20;99.90;;;;;;4948196;28;20136;-68
2023/04/02 07:01:32;;;;;;;7.43;4.20;;;3.40;99.90;;;;;;4936781;28;20058;-69
2023/04/02 07:03:58;;;;;;;9.00;4.20;;;3.50;99.90;;;;;;4938243;28;20047;-69
2023/04/02 07:06:24;;;;;;;7.78;3.83;;;3.50;99.90;;;;;;4968674;28;20039;-65
2023/04/02 07:08:50;;;;;;;8.68;5.20;;;3.60;99.90;;;;;;4968551;28;20456;-66
2023/04/02 07:11:20;;;;;;;7.78;5.00;;;3.60;99.90;;;;;;4970320;28;20058;-65
2023/04/02 07:13:47;;;;;;;7.93;4.43;;;3.50;99.90;;;;;;4967365;28;20042;-66
2023/04/02 07:16:24;;;;;;;9.38;4.47;;;3.50;99.90;;;;;;4963270;28;20529;-65
2023/04/02 07:18:50;;;;;;;11.43;4.72;;;3.50;99.90;;;;;;4970650;28;20150;-67
2023/04/02 07:21:15;;;;;;;7.45;5.13;;;3.70;99.90;;;;;;4970185;28;20077;-67
2023/04/02 07:23:42;;;;;;;6.55;4.40;;;3.80;99.90;;;;;;4958000;28;20481;-66
2023/04/02 07:26:12;;;;;;;7.90;4.32;;;3.80;99.90;;;;;;4972350;28;20178;-65
2023/04/02 07:28:37;;;;;;;12.05;4.38;;;3.80;99.90;;;;;;4973020;28;20054;-65
2023/04/02 07:31:03;;;;;;;9.02;4.05;;;3.80;99.90;;;;;;4973838;28;20046;-66
2023/04/02 07:33:29;;;;;;;8.27;3.40;;;3.80;99.90;;;;;;4974487;28;20130;-66
2023/04/02 07:35:56;;;;;;;6.30;3.88;;;3.60;99.90;;;;;;4973811;28;20050;-65
2023/04/02 07:38:22;;;;;;;7.38;3.50;;;3.50;99.90;;;;;;4972922;28;20047;-65
2023/04/02 07:40:48;;;;;;;6.38;3.60;;;3.50;99.90;;;;;;4952873;28;20047;-66
2023/04/02 07:43:14;;;;;;;7.50;4.00;;;3.50;99.90;;;;;;4971673;28;20043;-65
2023/04/02 07:45:40;;;;;;;6.65;3.42;;;3.50;99.90;;;;;;4949177;28;20402;-65
2023/04/02 07:48:06;;;;;;;7.18;3.72;;;3.60;99.90;;;;;;4971097;28;20145;-65
2023/04/02 07:50:32;;;;;;;7.43;3.88;;;3.90;99.90;;;;;;4970135;28;20039;-65
2023/04/02 07:52:59;;;;;;;7.70;3.53;;;4.20;99.90;;;;;;4958778;28;20049;-65
2023/04/02 07:55:24;;;;;;;10.98;3.80;;;4.50;99.90;;;;;;4957789;28;20043;-65
2023/04/02 07:57:53;;;;;;;9.35;3.92;;;4.40;99.90;;;;;;4971886;28;20035;-65
2023/04/02 08:00:19;;;;;;;5.93;3.58;;;4.40;99.90;;;;;;4975546;28;20043;-65
2023/04/02 08:02:45;;;;;;;6.53;3.60;;;4.30;99.90;;;;;;4958448;28;20042;-65
2023/04/02 08:05:12;;;;;;;8.50;4.50;;;4.20;99.90;;;;;;4956878;28;20540;-66
2023/04/02 08:07:38;;;;;;;6.32;4.00;;;4.10;99.90;;;;;;4965581;28;20398;-66
2023/04/02 08:10:05;;;;;;;6.57;4.13;;;4.00;99.90;;;;;;4957276;28;20074;-66
2023/04/02 08:12:31;;;;;;;12.38;3.72;;;4.00;99.90;;;;;;4957403;28;20042;-66
2023/04/02 08:14:56;;;;;;;6.93;4.05;;;4.00;99.90;;;;;;4956822;28;20379;-66
2023/04/02 08:17:22;;;;;;;9.35;3.60;;;4.00;99.90;;;;;;4973015;28;20035;-66
2023/04/02 08:19:48;;;;;;;13.10;4.15;;;4.00;99.90;;;;;;4974287;28;20031;-66
2023/04/02 08:22:13;;;;;;;6.82;3.92;;;4.00;99.90;;;;;;4967671;28;20544;-65
2023/04/02 08:24:39;;;;;;;8.77;3.80;;;4.10;99.90;;;;;;4973727;28;20046;-66
2023/04/02 08:27:04;;;;;;;7.47;3.80;;;4.20;99.90;;;;;;4956815;28;20039;-65
2023/04/02 08:29:31;;;;;;;7.82;3.85;;;4.20;99.90;;;;;;4971023;28;20030;-66
2023/04/02 08:32:00;;;;;;;7.20;3.78;;;4.30;99.90;;;;;;4973270;28;20069;-66
2023/04/02 08:34:26;;;;;;;12.30;4.57;;;4.40;99.90;;;;;;4948587;28;20046;-66
2023/04/02 08:36:55;;;;;;;6.60;4.28;;;4.60;99.90;;;;;;4973771;28;20045;-66
2023/04/02 08:39:21;;;;;;;9.52;4.72;;;4.70;99.90;;;;;;4965108;28;20433;-66
2023/04/02 08:42:03;;;;;;;9.07;5.03;;;4.80;99.90;;;;;;4973568;28;20038;-66
2023/04/02 08:44:37;;;;;;;7.32;4.90;;;5.00;99.90;;;;;;4973637;28;20715;-65
2023/04/02 08:47:05;;;;;;;11.18;5.25;;;4.90;99.90;;;;;;4971351;28;20027;-66
2023/04/02 08:49:41;;;;;;;8.63;4.45;;;4.80;99.90;;;;;;4943577;28;20047;-66
2023/04/02 08:52:26;;;;;;;7.78;4.40;;;4.70;99.90;;;;;;4973824;28;20118;-65
2023/04/02 08:54:55;;;;;;;7.47;5.10;;;4.50;99.90;;;;;;4950290;28;20047;-66
2023/04/02 08:57:20;;;;;;;11.32;5.22;;;4.40;99.90;;;;;;4972665;28;20556;-66
2023/04/02 08:59:46;;;;;;;8.25;5.05;;;4.40;99.90;;;;;;4973479;28;20117;-66
2023/04/02 09:02:36;;;;;;;11.07;5.72;;;4.50;99.90;;;;;;4973916;28;20039;-66
2023/04/02 09:05:05;;;;;;;10.05;4.72;;;4.50;99.90;;;;;;4954059;28;20560;-66
2023/04/02 09:07:32;;;;;;;7.28;4.60;;;4.50;99.90;;;;;;4955070;28;20035;-66
2023/04/02 09:09:58;;;;;;;9.63;4.70;;;4.50;99.90;;;;;;4972566;28;20126;-66
2023/04/02 09:12:28;;;;;;;7.75;4.97;;;4.60;99.90;;;;;;4970835;28;20045;-66
2023/04/02 09:15:12;;;;;;;10.75;4.30;;;4.70;99.90;;;;;;4976231;28;20070;-66
2023/04/02 09:17:38;;;;;;;8.40;5.13;;;4.80;99.90;;;;;;4966881;28;20049;-66
2023/04/02 09:20:28;;;;;;;8.73;4.47;;;4.80;99.90;;;;;;4973205;28;20043;-66
2023/04/02 09:22:54;;;;;;;8.20;4.43;;;4.90;99.90;;;;;;4956156;28;20053;-66
2023/04/02 09:25:25;;;;;;;8.13;4.07;;;5.00;99.90;;;;;;4976671;28;20058;-66
2023/04/02 09:27:54;;;;;;;9.05;4.60;;;5.00;99.90;;;;;;4953689;28;20100;-66
2023/04/02 09:30:39;;;;;;;8.05;4.50;;;5.10;99.90;;;;;;4951993;28;20049;-66
2023/04/02 09:33:08;;;;;;;8.75;4.95;;;5.20;99.90;;;;;;4972444;28;20046;-66
2023/04/02 09:35:47;;;;;;;8.63;5.03;;;5.30;99.90;;;;;;4955138;28;20043;-66
2023/04/02 09:38:20;;;;;;;9.20;4.95;;;5.50;99.90;;;;;;4957448;28;20118;-66
2023/04/02 09:40:57;;;;;;;10.48;4.32;;;5.60;99.90;;;;;;4972364;28;20082;-66
2023/04/02 09:43:29;;;;;;;5.82;3.85;;;5.60;99.90;;;;;;4973017;28;20039;-66
2023/04/02 09:46:17;;;;;;;7.97;4.55;;;5.70;99.90;;;;;;4969697;28;20089;-66
2023/04/02 09:48:57;;;;;;;6.43;4.53;;;5.90;99.90;;;;;;4967494;28;20038;-66
2023/04/02 09:51:33;;;;;;;9.00;4.57;;;6.10;99.90;;;;;;4971195;28;20564;-66
2023/04/02 09:54:02;;;;;;;9.82;4.07;;;6.10;99.90;;;;;;4953783;28;20090;-66
2023/04/02 09:56:33;;;;;;;9.98;4.20;;;6.00;99.90;;;;;;4952419;28;20512;-65
2023/04/02 09:59:16;;;;;;;8.35;3.63;;;6.10;99.90;;;;;;4938868;28;20057;-65
2023/04/02 10:01:59;;;;;;;6.78;3.55;;;6.20;99.90;;;;;;4972663;28;20034;-66
2023/04/02 10:04:30;;;;;;;7.35;3.33;;;6.40;99.90;;;;;;4955924;28;20043;-66
2023/04/02 10:06:57;;;;;;;5.65;3.40;;;6.40;99.90;;;;;;4955388;28;20038;-66
2023/04/02 10:09:36;;;;;;;6.93;3.20;;;6.60;99.90;;;;;;4972639;28;20039;-66
2023/04/02 10:12:08;;;;;;;7.05;3.90;;;6.50;99.90;;;;;;4954382;28;20493;-67
2023/04/02 10:14:42;;;;;;;7.10;3.92;;;6.60;99.90;;;;;;4971619;28;20660;-67
2023/04/02 10:17:22;;;;;;;8.55;3.92;;;6.50;99.90;;;;;;4971712;28;20121;-67
2023/04/02 10:19:58;;;;;;;8.38;4.40;;;6.40;99.90;;;;;;4969051;28;20483;-67
2023/04/02 10:22:27;;;;;;;7.00;4.38;;;6.30;99.90;;;;;;4955505;28;20486;-67
2023/04/02 10:24:52;;;;;;;6.15;4.25;;;6.40;99.90;;;;;;4981614;28;20109;-67
2023/04/02 10:27:36;;;;;;;9.30;4.55;;;6.50;99.90;;;;;;4976653;28;20050;-67
2023/04/02 10:30:17;;;;;;;11.18;4.80;;;6.40;99.90;;;;;;4956028;28;20066;-67
2023/04/02 10:32:43;;;;;;;;;;;6.30;99.90;;;;;;4969890;28;20126;-66
2023/04/02 10:35:27;;;;;;;9.40;4.53;;;6.40;99.90;;;;;;4970770;28;20008;-67
2023/04/02 10:38:45;;;;;;;7.10;3.90;;;6.50;99.90;;;;;;4952654;28;20066;-67
2023/04/02 10:42:02;;;;;;;6.97;3.83;;;6.70;99.90;;;;;;4888873;29;20039;-66
2023/04/02 10:44:48;;;;;;;4.43;3.15;;;6.80;99.90;;;;;;4920545;29;20087;-66
2023/04/02 10:47:26;;;;;;;5.90;3.70;;;6.90;99.90;;;;;;4978548;28;20048;-65
2023/04/02 10:50:23;;;;;;;6.75;3.55;;;7.10;99.90;;;;;;4967879;28;20390;-66
2023/04/02 10:52:57;;;;;;;5.80;3.60;;;7.00;99.90;;;;;;4940981;28;20050;-66
2023/04/02 10:55:27;;;;;;;8.38;3.72;;;7.10;99.90;;;;;;4971585;28;20497;-65
2023/04/02 10:57:58;;;;;;;7.78;3.45;;;7.20;99.90;;;;;;4971397;28;20041;-66
2023/04/02 11:00:30;;;;;;;6.70;3.40;;;7.20;99.90;;;;;;4972444;28;20089;-65
2023/04/02 11:03:10;;;;;;;11.52;3.72;;;7.10;99.90;;;;;;4967230;28;20085;-66
2023/04/02 11:05:49;;;;;;;7.40;3.20;;;7.20;99.90;;;;;;4978946;28;20041;-65
2023/04/02 11:08:39;;;;;;;5.43;3.15;;;7.40;99.90;;;;;;4971474;28;20097;-66
2023/04/02 11:11:17;;;;;;;7.40;3.25;;;7.50;99.90;;;;;;4974688;28;20058;-66
2023/04/02 11:14:01;;;;;;;7.75;3.40;;;7.70;99.90;;;;;;4974833;28;20035;-66
2023/04/02 11:16:27;;;;;;;7.18;2.85;;;8.00;99.90;;;;;;4971667;28;20493;-66
2023/04/02 11:19:16;;;;;;;4.40;2.83;;;8.10;99.90;;;;;;4968920;28;20039;-65
2023/04/02 11:21:45;;;;;;;6.70;3.15;;;8.10;99.90;;;;;;4961522;28;20117;-65
2023/04/02 11:24:30;;;;;;;6.93;2.80;;;8.10;99.90;;;;;;4974644;28;20031;-66
2023/04/02 11:27:13;;;;;;;7.22;3.30;;;8.10;99.90;;;;;;4949033;28;20043;-66
2023/04/02 11:30:03;;;;;;;4.90;3.35;;;8.10;99.90;;;;;;4978007;28;20066;-66
2023/04/02 11:32:38;;;;;;;10.10;3.38;;;8.10;99.90;;;;;;4955242;29;20122;-66
2023/04/02 11:35:25;;;;;;;7.40;3.40;;;8.20;99.90;;;;;;4976173;28;20117;-66
2023/04/02 11:37:53;;;;;;;6.75;3.33;;;8.30;99.90;;;;;;4970557;28;20031;-66
2023/04/02 11:40:56;;;;;;;5.65;3.10;;;8.40;99.90;;;;;;4974349;28;20042;-67
2023/04/02 11:43:36;;;;;;;4.78;2.60;;;8.50;99.90;;;;;;4951311;28;20118;-66
2023/04/02 11:46:17;;;;;;;6.90;3.00;;;8.60;99.90;;;;;;4955385;28;20054;-66
2023/04/02 11:48:43;;;;;;;5.33;3.30;;;8.60;99.90;;;;;;4970501;28;20043;-66
2023/04/02 11:51:35;;;;;;;8.30;2.88;;;8.50;99.90;;;;;;4969106;28;20370;-65
2023/04/02 11:54:01;;;;;;;5.47;3.03;;;8.60;99.90;;;;;;4970908;28;20058;-66
2023/04/02 11:57:08;;;;;;;7.05;2.97;;;8.70;99.90;;;;;;4954186;28;20038;-67
2023/04/02 11:59:45;;;;;;;8.07;3.00;;;8.80;99.90;;;;;;4906136;29;20083;-65
2023/04/02 12:02:31;;;;;;;6.43;2.50;;;8.70;99.90;;;;;;4958551;28;20105;-65
2023/04/02 12:05:25;;;;;;;5.38;3.03;;;8.80;99.90;;;;;;4971934;28;20045;-66
2023/04/02 12:08:13;;;;;;;4.50;2.80;;;8.90;99.90;;;;;;4971673;28;20121;-65
2023/04/02 12:11:01;;;;;;;5.53;2.75;;;9.00;99.90;;;;;;4966699;28;20121;-65
2023/04/02 12:13:38;;;;;;;6.03;3.00;;;9.00;99.90;;;;;;4971057;28;20509;-65
2023/04/02 12:16:15;;;;;;;5.10;2.90;;;9.00;99.90;;;;;;4968515;28;20046;-66
2023/04/02 12:18:45;;;;;;;5.30;2.70;;;9.10;99.90;;;;;;4952833;28;20042;-66
2023/04/02 12:21:16;;;;;;;4.85;2.90;;;9.10;99.90;;;;;;4970324;28;20136;-67
2023/04/02 12:23:45;;;;;;;5.50;2.70;;;9.30;99.90;;;;;;4971603;28;20058;-65
2023/04/02 12:26:26;;;;;;;3.17;2.38;;;9.10;99.90;;;;;;4955345;28;20086;-66
2023/04/02 12:28:52;;;;;;;6.85;2.70;;;9.30;99.90;;;;;;4971694;28;20039;-65
2023/04/02 12:31:20;;;;;;;4.75;2.72;;;9.40;99.90;;;;;;4968576;28;20042;-65
2023/04/02 12:33:50;;;;;;;3.92;2.70;;;9.50;99.90;;;;;;4969219;28;20042;-66
2023/04/02 12:36:21;;;;;;;4.07;2.30;;;9.40;99.90;;;;;;4960143;28;20042;-66
2023/04/02 12:38:52;;;;;;;;;;;9.50;99.90;;;;;;4955712;28;20046;-66
2023/04/02 12:41:32;;;;;;;11.55;3.13;;;9.60;99.90;;;;;;4974041;28;19971;-66
2023/04/02 12:44:17;;;;;;;4.43;2.67;;;9.70;99.90;;;;;;4974689;28;20027;-65
2023/04/02 12:46:45;;;;;;;5.95;2.65;;;10.00;99.90;;;;;;4977269;28;20043;-66
2023/04/02 12:49:19;;;;;;;4.03;2.20;;;10.00;99.90;;;;;;4978697;28;20042;-67
2023/04/02 12:51:46;;;;;;;6.45;3.08;;;9.90;98.80;;;;;;4979037;28;20412;-66
2023/04/02 12:54:16;;;;;;;5.22;2.58;;;9.90;99.90;;;;;;4972589;28;20520;-66
2023/04/02 12:56:42;;;;;;;6.38;2.83;;;10.00;99.90;;;;;;4977480;28;20046;-68
2023/04/02 12:59:28;;;;;;;6.20;3.13;;;10.00;99.90;;;;;;4962052;28;20038;-66
2023/04/02 13:01:56;;;;;;;4.55;2.65;;;10.10;99.90;;;;;;4974655;28;20042;-66
2023/04/02 13:04:21;;;;;;;4.55;2.60;;;10.00;99.30;;;;;;4979277;28;20041;-67
2023/04/02 13:06:56;;;;;;;7.15;2.50;;;9.90;99.90;;;;;;4979598;28;20039;-66
2023/04/02 13:09:34;;;;;;;4.47;2.60;;;10.10;99.20;;;;;;4978704;28;20110;-67
2023/04/02 13:12:01;;;;;;;4.60;2.60;;;10.10;99.90;;;;;;4964704;28;20046;-66
2023/04/02 13:14:28;;;;;;;5.35;2.45;;;10.10;99.90;;;;;;4970715;28;20062;-67
2023/04/02 13:16:54;;;;;;;3.90;2.60;;;10.20;99.90;;;;;;4947080;28;20039;-68
2023/04/02 13:19:30;;;;;;;2.60;2.03;;;10.50;99.90;;;;;;4952762;28;20039;-68
2023/04/02 13:22:01;;;;;;;4.63;2.58;;;10.60;99.90;;;;;;4958838;28;20041;-68
2023/04/02 13:24:29;;;;;;;6.07;2.33;;;10.70;99.90;;;;;;4948373;28;20041;-68
2023/04/02 13:26:57;;;;;;;5.53;2.25;;;10.70;99.90;;;;;;4956150;28;20114;-68
2023/04/02 13:29:34;;;;;;;6.63;2.50;;;10.80;99.90;;;;;;4968390;28;20117;-68
2023/04/02 13:32:03;;;;;;;4.22;2.33;;;10.80;99.90;;;;;;4954834;28;20047;-68